sensor_id;sensor_type;location;lat;lon;timestamp;temperature;humidity
814;DHT22;389;48.710;9.392;2023-05-10T00:00:17;16.00;99.90
814;DHT22;389;48.710;9.392;2023-05-10T00:02:42;16.00;99.90
814;DHT22;389;48.710;9.392;2023-05-10T00:05:08;16.00;99.90
814;DHT22;389;48.710;9.392;2023-05-10T00:07:33;16.00;99.90
814;DHT22;389;48.710;9.392;2023-05-10T00:09:59;16.00;99.90
814;DHT22;389;48.710;9.392;2023-05-10T00:12:25;15.90;99.90
814;DHT22;389;48.710;9.392;2023-05-10T00:14:50;15.90;99.90
814;DHT22;389;48.710;9.392;2023-05-10T00:17:16;15.90;99.90
814;DHT22;389;48.710;9.392;2023-05-10T00:19:41;15.90;99.90
814;DHT22;389;48.710;9.392;2023-05-10T00:22:07;15.90;99.90
814;DHT22;389;48.710;9.392;2023-05-10T00:24:32;15.90;99.90
814;DHT22;389;48.710;9.392;2023-05-10T00:26:58;15.90;99.90
814;DHT22;389;48.710;9.392;2023-05-10T00:29:25;15.90;99.90
814;DHT22;389;48.710;9.392;2023-05-10T00:31:53;15.90;99.90
814;DHT22;389;48.710;9.392;2023-05-10T00:34:18;15.90;99.90
814;DHT22;389;48.710;9.392;2023-05-10T00:36:44;15.90;99.90
814;DHT22;389;48.710;9.392;2023-05-10T00:39:10;15.80;99.90
814;DHT22;389;48.710;9.392;2023-05-10T00:41:35;15.80;99.90
814;DHT22;389;48.710;9.392;2023-05-10T00:44:01;15.80;99.90
814;DHT22;389;48.710;9.392;2023-05-10T00:46:27;15.80;99.90
814;DHT22;389;48.710;9.392;2023-05-10T00:48:53;15.80;99.90
814;DHT22;389;48.710;9.392;2023-05-10T00:51:19;15.60;99.90
814;DHT22;389;48.710;9.392;2023-05-10T00:53:46;15.60;99.90
814;DHT22;389;48.710;9.392;2023-05-10T00:56:12;15.60;99.90
814;DHT22;389;48.710;9.392;2023-05-10T00:58:41;15.60;99.90
814;DHT22;389;48.710;9.392;2023-05-10T01:01:08;15.50;99.90
814;DHT22;389;48.710;9.392;2023-05-10T01:03:34;15.50;99.90
814;DHT22;389;48.710;9.392;2023-05-10T01:06:00;15.50;99.90
814;DHT22;389;48.710;9.392;2023-05-10T01:08:26;15.50;99.90
814;DHT22;389;48.710;9.392;2023-05-10T01:10:52;15.50;99.90
814;DHT22;389;48.710;9.392;2023-05-10T01:13:44;15.50;99.90
814;DHT22;389;48.710;9.392;2023-05-10T01:16:10;15.50;99.90
814;DHT22;389;48.710;9.392;2023-05-10T01:18:40;15.50;99.90
814;DHT22;389;48.710;9.392;2023-05-10T01:34:35;15.30;99.90
814;DHT22;389;48.710;9.392;2023-05-10T01:37:10;15.30;99.90
814;DHT22;389;48.710;9.392;2023-05-10T01:39:58;15.30;99.90
814;DHT22;389;48.710;9.392;2023-05-10T01:42:28;15.30;99.90
814;DHT22;389;48.710;9.392;2023-05-10T01:47:41;15.20;99.90
814;DHT22;389;48.710;9.392;2023-05-10T01:50:15;15.20;99.90
814;DHT22;389;48.710;9.392;2023-05-10T01:52:53;15.10;99.90
814;DHT22;389;48.710;9.392;2023-05-10T01:55:21;15.10;99.90
814;DHT22;389;48.710;9.392;2023-05-10T01:57:52;15.10;99.90
814;DHT22;389;48.710;9.392;2023-05-10T02:00:20;15.20;99.90
814;DHT22;389;48.710;9.392;2023-05-10T02:02:48;15.10;99.90
814;DHT22;389;48.710;9.392;2023-05-10T02:05:15;15.00;99.90
814;DHT22;389;48.710;9.392;2023-05-10T02:07:41;15.00;99.90
814;DHT22;389;48.710;9.392;2023-05-10T02:10:09;15.00;99.90
814;DHT22;389;48.710;9.392;2023-05-10T02:12:37;15.00;99.90
814;DHT22;389;48.710;9.392;2023-05-10T02:15:05;15.00;99.90
814;DHT22;389;48.710;9.392;2023-05-10T02:17:32;15.00;99.90
814;DHT22;389;48.710;9.392;2023-05-10T02:19:59;15.00;99.90
814;DHT22;389;48.710;9.392;2023-05-10T02:22:27;15.00;99.90
814;DHT22;389;48.710;9.392;2023-05-10T02:24:54;14.90;99.90
814;DHT22;389;48.710;9.392;2023-05-10T02:27:25;14.90;99.90
814;DHT22;389;48.710;9.392;2023-05-10T02:29:53;14.90;99.90
814;DHT22;389;48.710;9.392;2023-05-10T02:32:19;14.90;99.90
814;DHT22;389;48.710;9.392;2023-05-10T02:34:46;14.90;99.90
814;DHT22;389;48.710;9.392;2023-05-10T02:37:18;14.80;99.90
814;DHT22;389;48.710;9.392;2023-05-10T02:39:45;14.70;99.90
814;DHT22;389;48.710;9.392;2023-05-10T02:42:14;14.70;99.90
814;DHT22;389;48.710;9.392;2023-05-10T02:44:41;14.70;99.90
814;DHT22;389;48.710;9.392;2023-05-10T02:47:07;14.70;99.90
814;DHT22;389;48.710;9.392;2023-05-10T02:49:33;14.70;99.90
814;DHT22;389;48.710;9.392;2023-05-10T02:52:01;14.60;99.90
814;DHT22;389;48.710;9.392;2023-05-10T02:54:31;14.60;99.90
814;DHT22;389;48.710;9.392;2023-05-10T02:57:00;14.50;99.90
814;DHT22;389;48.710;9.392;2023-05-10T02:59:26;14.50;99.90
814;DHT22;389;48.710;9.392;2023-05-10T03:01:52;14.50;99.90
814;DHT22;389;48.710;9.392;2023-05-10T03:04:18;14.50;99.90
814;DHT22;389;48.710;9.392;2023-05-10T03:06:44;14.50;99.90
814;DHT22;389;48.710;9.392;2023-05-10T03:09:10;14.50;99.90
814;DHT22;389;48.710;9.392;2023-05-10T03:17:36;14.50;99.90
814;DHT22;389;48.710;9.392;2023-05-10T03:20:09;14.40;99.90
814;DHT22;389;48.710;9.392;2023-05-10T03:22:45;14.40;99.90
814;DHT22;389;48.710;9.392;2023-05-10T03:25:13;14.40;99.90
814;DHT22;389;48.710;9.392;2023-05-10T03:27:43;14.40;99.90
814;DHT22;389;48.710;9.392;2023-05-10T03:30:11;14.40;99.90
814;DHT22;389;48.710;9.392;2023-05-10T03:32:38;14.40;99.90
814;DHT22;389;48.710;9.392;2023-05-10T03:35:08;14.50;99.90
814;DHT22;389;48.710;9.392;2023-05-10T03:37:34;14.40;99.90
814;DHT22;389;48.710;9.392;2023-05-10T03:40:00;14.40;99.90
814;DHT22;389;48.710;9.392;2023-05-10T03:42:26;14.40;99.90
814;DHT22;389;48.710;9.392;2023-05-10T03:44:51;14.40;99.90
814;DHT22;389;48.710;9.392;2023-05-10T03:47:17;14.40;99.90
814;DHT22;389;48.710;9.392;2023-05-10T03:49:42;14.40;99.90
814;DHT22;389;48.710;9.392;2023-05-10T03:52:08;14.40;99.90
814;DHT22;389;48.710;9.392;2023-05-10T03:54:33;14.40;99.90
814;DHT22;389;48.710;9.392;2023-05-10T03:56:59;14.50;99.90
814;DHT22;389;48.710;9.392;2023-05-10T03:59:26;14.50;99.90
814;DHT22;389;48.710;9.392;2023-05-10T04:01:52;14.50;99.90
814;DHT22;389;48.710;9.392;2023-05-10T04:04:17;14.50;99.90
814;DHT22;389;48.710;9.392;2023-05-10T04:06:44;14.50;99.90
814;DHT22;389;48.710;9.392;2023-05-10T04:09:10;14.50;99.90
814;DHT22;389;48.710;9.392;2023-05-10T04:11:36;14.50;99.90
814;DHT22;389;48.710;9.392;2023-05-10T04:14:01;14.50;99.90
814;DHT22;389;48.710;9.392;2023-05-10T04:16:27;14.50;99.90
814;DHT22;389;48.710;9.392;2023-05-10T04:18:53;14.50;99.90
814;DHT22;389;48.710;9.392;2023-05-10T04:21:18;14.60;99.90
814;DHT22;389;48.710;9.392;2023-05-10T04:23:44;14.60;99.90
814;DHT22;389;48.710;9.392;2023-05-10T04:26:09;14.60;99.90
814;DHT22;389;48.710;9.392;2023-05-10T04:28:35;14.60;99.90
814;DHT22;389;48.710;9.392;2023-05-10T04:31:05;14.60;99.90
814;DHT22;389;48.710;9.392;2023-05-10T04:33:31;14.70;99.90
814;DHT22;389;48.710;9.392;2023-05-10T04:35:56;14.80;99.90
814;DHT22;389;48.710;9.392;2023-05-10T04:38:22;14.80;99.90
814;DHT22;389;48.710;9.392;2023-05-10T04:40:48;14.80;99.90
814;DHT22;389;48.710;9.392;2023-05-10T04:43:13;14.80;99.90
814;DHT22;389;48.710;9.392;2023-05-10T04:45:39;14.80;99.90
814;DHT22;389;48.710;9.392;2023-05-10T04:48:05;14.80;99.90
814;DHT22;389;48.710;9.392;2023-05-10T04:50:30;14.90;99.90
814;DHT22;389;48.710;9.392;2023-05-10T04:52:57;14.90;99.90
814;DHT22;389;48.710;9.392;2023-05-10T04:55:22;15.00;99.90
814;DHT22;389;48.710;9.392;2023-05-10T04:57:48;15.00;99.90
814;DHT22;389;48.710;9.392;2023-05-10T05:00:14;15.10;99.90
814;DHT22;389;48.710;9.392;2023-05-10T05:02:42;15.20;99.90
814;DHT22;389;48.710;9.392;2023-05-10T05:05:09;15.20;99.90
814;DHT22;389;48.710;9.392;2023-05-10T05:07:35;15.30;99.90
814;DHT22;389;48.710;9.392;2023-05-10T05:10:00;15.30;99.90
814;DHT22;389;48.710;9.392;2023-05-10T05:12:26;15.30;99.90
814;DHT22;389;48.710;9.392;2023-05-10T05:14:51;15.40;99.90
814;DHT22;389;48.710;9.392;2023-05-10T05:17:17;15.40;99.90
814;DHT22;389;48.710;9.392;2023-05-10T05:19:42;15.50;99.90
814;DHT22;389;48.710;9.392;2023-05-10T05:22:08;15.60;99.90
814;DHT22;389;48.710;9.392;2023-05-10T05:24:37;15.70;99.90
814;DHT22;389;48.710;9.392;2023-05-10T05:27:03;15.80;99.90
814;DHT22;389;48.710;9.392;2023-05-10T05:29:29;15.90;99.90
814;DHT22;389;48.710;9.392;2023-05-10T05:31:55;16.00;99.90
814;DHT22;389;48.710;9.392;2023-05-10T05:34:20;16.10;99.90
814;DHT22;389;48.710;9.392;2023-05-10T05:36:47;16.20;99.90
814;DHT22;389;48.710;9.392;2023-05-10T05:39:12;16.30;99.90
814;DHT22;389;48.710;9.392;2023-05-10T05:41:38;16.40;99.90
814;DHT22;389;48.710;9.392;2023-05-10T05:44:04;16.50;99.90
814;DHT22;389;48.710;9.392;2023-05-10T05:46:29;16.50;99.90
814;DHT22;389;48.710;9.392;2023-05-10T05:48:55;16.60;99.90
814;DHT22;389;48.710;9.392;2023-05-10T05:51:21;16.60;99.90
814;DHT22;389;48.710;9.392;2023-05-10T05:53:46;16.60;99.90
814;DHT22;389;48.710;9.392;2023-05-10T05:56:12;16.60;99.90
814;DHT22;389;48.710;9.392;2023-05-10T05:58:37;16.60;99.90
814;DHT22;389;48.710;9.392;2023-05-10T06:01:03;16.60;99.90
814;DHT22;389;48.710;9.392;2023-05-10T06:03:28;16.60;99.90
814;DHT22;389;48.710;9.392;2023-05-10T06:05:54;16.70;99.90
814;DHT22;389;48.710;9.392;2023-05-10T06:08:20;16.80;99.90
814;DHT22;389;48.710;9.392;2023-05-10T06:10:45;16.70;99.90
814;DHT22;389;48.710;9.392;2023-05-10T06:13:11;16.70;99.90
814;DHT22;389;48.710;9.392;2023-05-10T06:15:37;16.70;99.90
814;DHT22;389;48.710;9.392;2023-05-10T06:18:03;16.60;99.90
814;DHT22;389;48.710;9.392;2023-05-10T06:20:29;16.60;99.90
814;DHT22;389;48.710;9.392;2023-05-10T06:22:56;16.60;99.90
814;DHT22;389;48.710;9.392;2023-05-10T06:25:23;16.60;99.90
814;DHT22;389;48.710;9.392;2023-05-10T06:27:48;16.60;99.90
814;DHT22;389;48.710;9.392;2023-05-10T06:30:14;16.70;99.90
814;DHT22;389;48.710;9.392;2023-05-10T06:32:42;16.70;99.90
814;DHT22;389;48.710;9.392;2023-05-10T06:35:09;16.80;99.90
814;DHT22;389;48.710;9.392;2023-05-10T06:37:34;16.70;99.90
814;DHT22;389;48.710;9.392;2023-05-10T06:40:00;16.70;99.90
814;DHT22;389;48.710;9.392;2023-05-10T06:42:27;16.80;99.90
814;DHT22;389;48.710;9.392;2023-05-10T06:44:52;16.70;99.90
814;DHT22;389;48.710;9.392;2023-05-10T06:47:18;16.80;99.90
814;DHT22;389;48.710;9.392;2023-05-10T06:49:44;16.80;99.90
814;DHT22;389;48.710;9.392;2023-05-10T06:52:09;16.90;99.90
814;DHT22;389;48.710;9.392;2023-05-10T06:54:35;16.90;99.90
814;DHT22;389;48.710;9.392;2023-05-10T06:57:00;16.90;99.90
814;DHT22;389;48.710;9.392;2023-05-10T06:59:28;16.90;99.90
814;DHT22;389;48.710;9.392;2023-05-10T07:01:53;17.00;99.90
814;DHT22;389;48.710;9.392;2023-05-10T07:04:20;17.00;99.90
814;DHT22;389;48.710;9.392;2023-05-10T07:06:46;17.00;99.90
814;DHT22;389;48.710;9.392;2023-05-10T07:09:11;17.10;99.90
814;DHT22;389;48.710;9.392;2023-05-10T07:11:38;17.00;99.90
814;DHT22;389;48.710;9.392;2023-05-10T07:14:04;17.00;99.90
814;DHT22;389;48.710;9.392;2023-05-10T07:16:30;17.00;99.90
814;DHT22;389;48.710;9.392;2023-05-10T07:18:55;17.10;99.90
814;DHT22;389;48.710;9.392;2023-05-10T07:21:21;17.10;99.90
814;DHT22;389;48.710;9.392;2023-05-10T07:23:49;17.10;99.90
814;DHT22;389;48.710;9.392;2023-05-10T07:26:15;17.20;99.90
814;DHT22;389;48.710;9.392;2023-05-10T07:28:41;17.20;99.90
814;DHT22;389;48.710;9.392;2023-05-10T07:31:06;17.20;99.90
814;DHT22;389;48.710;9.392;2023-05-10T07:33:32;17.20;99.90
814;DHT22;389;48.710;9.392;2023-05-10T07:35:57;17.20;99.90
814;DHT22;389;48.710;9.392;2023-05-10T07:38:23;17.30;99.90
814;DHT22;389;48.710;9.392;2023-05-10T07:40:48;17.40;99.90
814;DHT22;389;48.710;9.392;2023-05-10T07:43:14;17.50;99.90
814;DHT22;389;48.710;9.392;2023-05-10T07:45:40;17.60;99.90
814;DHT22;389;48.710;9.392;2023-05-10T07:48:05;17.80;99.90
814;DHT22;389;48.710;9.392;2023-05-10T07:50:31;18.10;99.90
814;DHT22;389;48.710;9.392;2023-05-10T07:52:56;18.30;99.90
814;DHT22;389;48.710;9.392;2023-05-10T07:55:22;18.60;99.90
814;DHT22;389;48.710;9.392;2023-05-10T07:57:48;18.70;99.30
814;DHT22;389;48.710;9.392;2023-05-10T08:00:17;19.00;99.50
814;DHT22;389;48.710;9.392;2023-05-10T08:02:43;19.10;98.50
814;DHT22;389;48.710;9.392;2023-05-10T08:05:09;19.30;98.40
814;DHT22;389;48.710;9.392;2023-05-10T08:07:35;19.40;97.80
814;DHT22;389;48.710;9.392;2023-05-10T08:10:01;19.50;97.70
814;DHT22;389;48.710;9.392;2023-05-10T08:12:27;19.60;97.60
814;DHT22;389;48.710;9.392;2023-05-10T08:14:52;19.80;96.70
814;DHT22;389;48.710;9.392;2023-05-10T08:17:18;19.80;96.60
814;DHT22;389;48.710;9.392;2023-05-10T08:19:43;19.80;96.40
814;DHT22;389;48.710;9.392;2023-05-10T08:22:09;19.90;96.30
814;DHT22;389;48.710;9.392;2023-05-10T08:24:35;19.90;95.70
814;DHT22;389;48.710;9.392;2023-05-10T08:27:04;19.80;95.70
814;DHT22;389;48.710;9.392;2023-05-10T08:29:30;19.70;95.70
814;DHT22;389;48.710;9.392;2023-05-10T08:31:55;19.60;95.60
814;DHT22;389;48.710;9.392;2023-05-10T08:34:21;19.50;95.90
814;DHT22;389;48.710;9.392;2023-05-10T08:36:47;19.40;95.90
814;DHT22;389;48.710;9.392;2023-05-10T08:39:12;19.40;96.30
814;DHT22;389;48.710;9.392;2023-05-10T08:41:39;19.50;96.10
814;DHT22;389;48.710;9.392;2023-05-10T08:44:07;19.50;95.90
814;DHT22;389;48.710;9.392;2023-05-10T08:46:37;19.60;95.40
814;DHT22;389;48.710;9.392;2023-05-10T08:49:07;19.70;95.30
814;DHT22;389;48.710;9.392;2023-05-10T08:51:55;19.80;94.90
814;DHT22;389;48.710;9.392;2023-05-10T08:54:28;19.80;94.70
814;DHT22;389;48.710;9.392;2023-05-10T08:57:03;19.90;95.10
814;DHT22;389;48.710;9.392;2023-05-10T08:59:29;19.90;95.10
814;DHT22;389;48.710;9.392;2023-05-10T09:01:57;20.00;95.00
814;DHT22;389;48.710;9.392;2023-05-10T09:04:24;20.10;94.00
814;DHT22;389;48.710;9.392;2023-05-10T09:06:50;20.30;94.00
814;DHT22;389;48.710;9.392;2023-05-10T09:09:51;20.30;93.80
814;DHT22;389;48.710;9.392;2023-05-10T09:12:17;20.50;93.40
814;DHT22;389;48.710;9.392;2023-05-10T09:14:44;20.60;92.80
814;DHT22;389;48.710;9.392;2023-05-10T09:17:10;20.60;92.90
814;DHT22;389;48.710;9.392;2023-05-10T09:19:39;20.60;92.60
814;DHT22;389;48.710;9.392;2023-05-10T09:22:05;20.50;92.60
814;DHT22;389;48.710;9.392;2023-05-10T09:24:30;20.50;92.40
814;DHT22;389;48.710;9.392;2023-05-10T09:26:57;20.60;92.50
814;DHT22;389;48.710;9.392;2023-05-10T09:29:23;20.60;92.30
814;DHT22;389;48.710;9.392;2023-05-10T09:31:51;20.70;92.20
814;DHT22;389;48.710;9.392;2023-05-10T09:34:32;20.70;91.70
814;DHT22;389;48.710;9.392;2023-05-10T09:37:01;20.60;91.50
814;DHT22;389;48.710;9.392;2023-05-10T09:39:40;20.50;91.90
814;DHT22;389;48.710;9.392;2023-05-10T09:42:17;20.40;92.20
814;DHT22;389;48.710;9.392;2023-05-10T09:44:54;20.10;92.50
814;DHT22;389;48.710;9.392;2023-05-10T09:47:27;19.90;93.20
814;DHT22;389;48.710;9.392;2023-05-10T09:49:53;19.80;93.40
814;DHT22;389;48.710;9.392;2023-05-10T09:52:26;19.60;93.90
814;DHT22;389;48.710;9.392;2023-05-10T09:55:02;19.50;94.10
814;DHT22;389;48.710;9.392;2023-05-10T09:57:27;19.30;94.10
814;DHT22;389;48.710;9.392;2023-05-10T09:59:53;19.10;94.00
814;DHT22;389;48.710;9.392;2023-05-10T10:02:19;18.80;94.30
814;DHT22;389;48.710;9.392;2023-05-10T10:04:48;18.90;94.20
814;DHT22;389;48.710;9.392;2023-05-10T10:07:14;18.50;95.20
814;DHT22;389;48.710;9.392;2023-05-10T10:09:40;18.10;96.10
814;DHT22;389;48.710;9.392;2023-05-10T10:12:05;17.80;96.50
814;DHT22;389;48.710;9.392;2023-05-10T10:14:31;17.70;97.00
814;DHT22;389;48.710;9.392;2023-05-10T10:16:57;17.60;97.30
814;DHT22;389;48.710;9.392;2023-05-10T10:19:25;17.40;96.70
814;DHT22;389;48.710;9.392;2023-05-10T10:21:51;17.40;96.60
814;DHT22;389;48.710;9.392;2023-05-10T10:24:17;17.50;96.40
814;DHT22;389;48.710;9.392;2023-05-10T10:26:43;17.70;97.40
814;DHT22;389;48.710;9.392;2023-05-10T10:29:23;18.00;97.90
814;DHT22;389;48.710;9.392;2023-05-10T10:34:27;18.80;96.90
814;DHT22;389;48.710;9.392;2023-05-10T10:36:54;19.20;95.90
814;DHT22;389;48.710;9.392;2023-05-10T10:39:20;19.50;94.40
814;DHT22;389;48.710;9.392;2023-05-10T10:41:50;19.90;94.20
814;DHT22;389;48.710;9.392;2023-05-10T10:44:23;20.20;92.10
814;DHT22;389;48.710;9.392;2023-05-10T10:50:03;20.70;90.80
814;DHT22;389;48.710;9.392;2023-05-10T10:52:42;20.90;90.30
814;DHT22;389;48.710;9.392;2023-05-10T10:55:11;21.10;91.10
814;DHT22;389;48.710;9.392;2023-05-10T11:00:28;21.30;90.10
814;DHT22;389;48.710;9.392;2023-05-10T11:02:57;21.30;90.00
814;DHT22;389;48.710;9.392;2023-05-10T11:05:34;21.20;89.90
814;DHT22;389;48.710;9.392;2023-05-10T11:08:12;21.10;89.90
814;DHT22;389;48.710;9.392;2023-05-10T11:10:39;20.80;87.70
814;DHT22;389;48.710;9.392;2023-05-10T11:13:06;20.50;90.10
814;DHT22;389;48.710;9.392;2023-05-10T11:15:34;20.20;91.20
814;DHT22;389;48.710;9.392;2023-05-10T11:18:26;19.80;91.00
814;DHT22;389;48.710;9.392;2023-05-10T11:20:55;19.40;91.40
814;DHT22;389;48.710;9.392;2023-05-10T11:23:21;19.00;92.50
814;DHT22;389;48.710;9.392;2023-05-10T11:25:48;18.80;93.50
814;DHT22;389;48.710;9.392;2023-05-10T11:28:16;18.70;93.90
814;DHT22;389;48.710;9.392;2023-05-10T11:30:43;18.70;94.40
814;DHT22;389;48.710;9.392;2023-05-10T11:33:11;18.60;94.50
814;DHT22;389;48.710;9.392;2023-05-10T11:35:40;18.50;94.40
814;DHT22;389;48.710;9.392;2023-05-10T11:38:10;18.30;92.70
814;DHT22;389;48.710;9.392;2023-05-10T11:40:36;18.00;92.00
814;DHT22;389;48.710;9.392;2023-05-10T11:43:03;17.80;91.60
814;DHT22;389;48.710;9.392;2023-05-10T11:45:31;17.60;91.70
814;DHT22;389;48.710;9.392;2023-05-10T11:47:57;17.40;92.60
814;DHT22;389;48.710;9.392;2023-05-10T11:50:23;17.30;93.10
814;DHT22;389;48.710;9.392;2023-05-10T11:52:56;17.30;93.80
814;DHT22;389;48.710;9.392;2023-05-10T11:55:22;17.20;94.10
814;DHT22;389;48.710;9.392;2023-05-10T11:57:52;17.10;94.60
814;DHT22;389;48.710;9.392;2023-05-10T12:00:18;17.00;94.40
814;DHT22;389;48.710;9.392;2023-05-10T12:02:43;17.00;93.90
814;DHT22;389;48.710;9.392;2023-05-10T12:05:10;17.00;93.70
814;DHT22;389;48.710;9.392;2023-05-10T12:07:35;16.90;93.70
814;DHT22;389;48.710;9.392;2023-05-10T12:10:06;16.90;93.60
814;DHT22;389;48.710;9.392;2023-05-10T12:12:38;16.80;93.50
814;DHT22;389;48.710;9.392;2023-05-10T12:15:05;16.70;94.10
814;DHT22;389;48.710;9.392;2023-05-10T12:17:37;16.60;94.50
814;DHT22;389;48.710;9.392;2023-05-10T12:20:14;16.60;94.90
814;DHT22;389;48.710;9.392;2023-05-10T12:22:40;16.50;95.20
814;DHT22;389;48.710;9.392;2023-05-10T12:25:08;16.50;95.40
814;DHT22;389;48.710;9.392;2023-05-10T12:27:33;16.40;95.90
814;DHT22;389;48.710;9.392;2023-05-10T12:29:59;16.40;96.20
814;DHT22;389;48.710;9.392;2023-05-10T12:32:41;16.40;96.80
814;DHT22;389;48.710;9.392;2023-05-10T12:35:07;16.40;97.40
814;DHT22;389;48.710;9.392;2023-05-10T12:37:33;16.50;97.70
814;DHT22;389;48.710;9.392;2023-05-10T12:40:05;16.50;98.00
814;DHT22;389;48.710;9.392;2023-05-10T12:42:31;16.60;98.00
814;DHT22;389;48.710;9.392;2023-05-10T12:44:57;16.70;98.50
814;DHT22;389;48.710;9.392;2023-05-10T12:47:23;16.70;98.50
814;DHT22;389;48.710;9.392;2023-05-10T12:49:48;16.80;98.70
814;DHT22;389;48.710;9.392;2023-05-10T12:52:14;17.00;98.40
814;DHT22;389;48.710;9.392;2023-05-10T12:54:39;17.20;98.20
814;DHT22;389;48.710;9.392;2023-05-10T12:57:05;17.40;98.10
814;DHT22;389;48.710;9.392;2023-05-10T12:59:30;17.70;98.10
814;DHT22;389;48.710;9.392;2023-05-10T13:01:57;17.90;97.50
814;DHT22;389;48.710;9.392;2023-05-10T13:04:23;18.00;97.20
814;DHT22;389;48.710;9.392;2023-05-10T13:06:48;18.10;96.50
814;DHT22;389;48.710;9.392;2023-05-10T13:09:15;18.10;96.20
814;DHT22;389;48.710;9.392;2023-05-10T13:11:41;18.10;96.40
814;DHT22;389;48.710;9.392;2023-05-10T13:14:06;18.00;96.60
814;DHT22;389;48.710;9.392;2023-05-10T13:16:32;18.00;96.80
814;DHT22;389;48.710;9.392;2023-05-10T13:18:58;17.90;96.80
814;DHT22;389;48.710;9.392;2023-05-10T13:21:23;17.80;96.80
814;DHT22;389;48.710;9.392;2023-05-10T13:23:50;17.70;96.90
814;DHT22;389;48.710;9.392;2023-05-10T13:26:16;17.60;96.80
814;DHT22;389;48.710;9.392;2023-05-10T13:28:42;17.50;96.70
814;DHT22;389;48.710;9.392;2023-05-10T13:31:08;17.40;96.80
814;DHT22;389;48.710;9.392;2023-05-10T13:33:33;17.30;97.00
814;DHT22;389;48.710;9.392;2023-05-10T13:35:59;17.20;97.20
814;DHT22;389;48.710;9.392;2023-05-10T13:38:24;17.10;97.20
814;DHT22;389;48.710;9.392;2023-05-10T13:40:50;17.10;97.40
814;DHT22;389;48.710;9.392;2023-05-10T13:43:18;17.00;97.00
814;DHT22;389;48.710;9.392;2023-05-10T13:45:43;17.00;97.10
814;DHT22;389;48.710;9.392;2023-05-10T13:48:09;17.10;97.40
814;DHT22;389;48.710;9.392;2023-05-10T13:50:35;17.30;97.20
814;DHT22;389;48.710;9.392;2023-05-10T13:53:00;17.60;97.90
814;DHT22;389;48.710;9.392;2023-05-10T13:55:26;17.80;97.30
814;DHT22;389;48.710;9.392;2023-05-10T13:57:51;18.10;97.30
814;DHT22;389;48.710;9.392;2023-05-10T14:00:17;18.40;96.00
814;DHT22;389;48.710;9.392;2023-05-10T14:02:43;18.60;95.80
814;DHT22;389;48.710;9.392;2023-05-10T14:05:08;18.90;95.80
814;DHT22;389;48.710;9.392;2023-05-10T14:07:34;19.20;95.60
814;DHT22;389;48.710;9.392;2023-05-10T14:10:00;19.50;94.70
814;DHT22;389;48.710;9.392;2023-05-10T14:12:27;19.70;93.70
814;DHT22;389;48.710;9.392;2023-05-10T14:14:52;19.90;93.90
814;DHT22;389;48.710;9.392;2023-05-10T14:17:18;20.00;93.80
814;DHT22;389;48.710;9.392;2023-05-10T14:19:44;20.10;94.10
814;DHT22;389;48.710;9.392;2023-05-10T14:22:10;20.10;93.80
814;DHT22;389;48.710;9.392;2023-05-10T14:24:35;20.20;93.70
814;DHT22;389;48.710;9.392;2023-05-10T14:27:01;20.20;92.60
814;DHT22;389;48.710;9.392;2023-05-10T14:29:27;20.00;92.20
814;DHT22;389;48.710;9.392;2023-05-10T14:31:52;19.90;92.80
814;DHT22;389;48.710;9.392;2023-05-10T14:34:18;19.80;93.70
814;DHT22;389;48.710;9.392;2023-05-10T14:36:43;19.90;93.90
814;DHT22;389;48.710;9.392;2023-05-10T14:39:09;20.00;93.80
814;DHT22;389;48.710;9.392;2023-05-10T14:41:35;20.00;93.40
814;DHT22;389;48.710;9.392;2023-05-10T14:44:01;20.20;93.70
814;DHT22;389;48.710;9.392;2023-05-10T14:46:28;20.20;93.30
814;DHT22;389;48.710;9.392;2023-05-10T14:48:55;20.20;93.00
814;DHT22;389;48.710;9.392;2023-05-10T14:51:20;20.30;92.70
814;DHT22;389;48.710;9.392;2023-05-10T14:53:48;20.30;92.60
814;DHT22;389;48.710;9.392;2023-05-10T14:56:14;20.20;93.10
814;DHT22;389;48.710;9.392;2023-05-10T14:58:39;20.10;92.00
814;DHT22;389;48.710;9.392;2023-05-10T15:01:05;20.10;92.20
814;DHT22;389;48.710;9.392;2023-05-10T15:03:30;20.10;92.30
814;DHT22;389;48.710;9.392;2023-05-10T15:05:56;20.20;91.60
814;DHT22;389;48.710;9.392;2023-05-10T15:08:23;20.20;91.80
814;DHT22;389;48.710;9.392;2023-05-10T15:10:50;20.30;92.30
814;DHT22;389;48.710;9.392;2023-05-10T15:13:16;20.40;92.40
814;DHT22;389;48.710;9.392;2023-05-10T15:15:42;20.40;92.30
814;DHT22;389;48.710;9.392;2023-05-10T15:18:08;20.50;92.00
814;DHT22;389;48.710;9.392;2023-05-10T15:20:34;20.50;91.50
814;DHT22;389;48.710;9.392;2023-05-10T15:23:00;20.60;90.90
814;DHT22;389;48.710;9.392;2023-05-10T15:25:27;20.60;90.70
814;DHT22;389;48.710;9.392;2023-05-10T15:27:54;20.60;90.70
814;DHT22;389;48.710;9.392;2023-05-10T15:30:19;20.60;90.60
814;DHT22;389;48.710;9.392;2023-05-10T15:32:45;20.60;88.70
814;DHT22;389;48.710;9.392;2023-05-10T15:35:11;20.50;88.70
814;DHT22;389;48.710;9.392;2023-05-10T15:37:38;20.50;88.30
814;DHT22;389;48.710;9.392;2023-05-10T15:40:04;20.40;87.60
814;DHT22;389;48.710;9.392;2023-05-10T15:42:30;20.40;88.90
814;DHT22;389;48.710;9.392;2023-05-10T15:44:57;20.30;89.30
814;DHT22;389;48.710;9.392;2023-05-10T15:47:23;20.30;88.40
814;DHT22;389;48.710;9.392;2023-05-10T15:49:49;20.30;89.10
814;DHT22;389;48.710;9.392;2023-05-10T15:52:14;20.30;89.90
814;DHT22;389;48.710;9.392;2023-05-10T15:54:41;20.30;90.10
814;DHT22;389;48.710;9.392;2023-05-10T15:57:07;20.30;90.60
814;DHT22;389;48.710;9.392;2023-05-10T15:59:32;20.30;90.10
814;DHT22;389;48.710;9.392;2023-05-10T16:02:00;20.30;89.80
814;DHT22;389;48.710;9.392;2023-05-10T16:04:25;20.30;89.90
814;DHT22;389;48.710;9.392;2023-05-10T16:06:51;20.30;89.90
814;DHT22;389;48.710;9.392;2023-05-10T16:09:17;20.30;90.00
814;DHT22;389;48.710;9.392;2023-05-10T16:11:42;20.20;90.00
814;DHT22;389;48.710;9.392;2023-05-10T16:14:08;20.20;89.30
814;DHT22;389;48.710;9.392;2023-05-10T16:16:34;20.20;89.50
814;DHT22;389;48.710;9.392;2023-05-10T16:19:00;20.10;88.70
814;DHT22;389;48.710;9.392;2023-05-10T16:21:29;20.00;88.60
814;DHT22;389;48.710;9.392;2023-05-10T16:23:57;20.00;88.90
814;DHT22;389;48.710;9.392;2023-05-10T16:26:23;19.90;88.20
814;DHT22;389;48.710;9.392;2023-05-10T16:28:49;19.90;88.30
814;DHT22;389;48.710;9.392;2023-05-10T16:31:15;19.90;89.20
814;DHT22;389;48.710;9.392;2023-05-10T16:33:43;19.90;90.30
814;DHT22;389;48.710;9.392;2023-05-10T16:36:08;19.80;91.20
814;DHT22;389;48.710;9.392;2023-05-10T16:38:34;19.60;92.10
814;DHT22;389;48.710;9.392;2023-05-10T16:41:02;19.60;92.30
814;DHT22;389;48.710;9.392;2023-05-10T16:43:29;19.60;92.60
814;DHT22;389;48.710;9.392;2023-05-10T16:45:55;19.60;92.50
814;DHT22;389;48.710;9.392;2023-05-10T16:48:20;19.50;92.40
814;DHT22;389;48.710;9.392;2023-05-10T16:50:46;19.50;92.40
814;DHT22;389;48.710;9.392;2023-05-10T16:53:12;19.40;92.40
814;DHT22;389;48.710;9.392;2023-05-10T16:55:38;19.40;92.50
814;DHT22;389;48.710;9.392;2023-05-10T16:58:04;19.40;92.70
814;DHT22;389;48.710;9.392;2023-05-10T17:00:29;19.30;92.80
814;DHT22;389;48.710;9.392;2023-05-10T17:02:55;19.30;92.70